createdAt,value
2023-03-08T00:00:22.463Z,15.73
2023-03-08T00:02:49.329Z,20.02
2023-03-08T00:05:22.450Z,18.25
2023-03-08T00:07:49.383Z,17.48
2023-03-08T00:10:16.554Z,17.48
2023-03-08T00:12:50.435Z,15.60
2023-03-08T00:15:24.417Z,14.98
2023-03-08T00:17:51.365Z,13.38
2023-03-08T00:20:18.449Z,13.60
2023-03-08T00:22:51.491Z,13.45
2023-03-08T00:25:18.575Z,14.55
2023-03-08T00:27:52.449Z,14.57
2023-03-08T00:30:32.443Z,15.85
2023-03-08T00:33:05.488Z,16.90
2023-03-08T00:35:32.419Z,17.17
2023-03-08T00:38:05.499Z,16.55
2023-03-08T00:41:37.913Z,16.30
2023-03-08T00:43:45.463Z,15.48
2023-03-08T00:46:21.547Z,17.52
2023-03-08T00:48:55.556Z,16.55
2023-03-08T00:51:22.549Z,16.98
2023-03-08T00:53:56.507Z,15.35
2023-03-08T00:56:29.467Z,16.15
2023-03-08T00:58:56.410Z,15.40
2023-03-08T01:01:23.335Z,14.70
2023-03-08T01:03:56.514Z,15.63
2023-03-08T01:06:23.574Z,15.35
2023-03-08T01:08:50.652Z,14.52
2023-03-08T01:11:31.502Z,14.18
2023-03-08T01:13:58.537Z,14.70
2023-03-08T01:16:34.454Z,14.00
2023-03-08T01:19:01.861Z,15.25
2023-03-08T01:21:36.515Z,14.63
2023-03-08T01:24:03.648Z,13.85
2023-03-08T01:26:37.516Z,13.10
2023-03-08T01:29:04.437Z,12.57
2023-03-08T01:31:37.515Z,14.25
2023-03-08T01:34:10.486Z,12.80
2023-03-08T01:36:43.497Z,14.02
2023-03-08T01:39:10.539Z,13.57
2023-03-08T01:41:43.598Z,12.70
2023-03-08T01:44:18.190Z,12.68
2023-03-08T01:46:51.494Z,12.88
2023-03-08T01:49:38.725Z,11.43
2023-03-08T01:52:20.493Z,14.05
2023-03-08T01:54:49.331Z,13.52
2023-03-08T01:57:46.567Z,12.40
2023-03-08T02:00:19.691Z,12.82
2023-03-08T02:03:14.492Z,12.70
2023-03-08T02:05:50.510Z,11.65
2023-03-08T02:08:24.509Z,11.73
2023-03-08T02:10:51.493Z,12.43
2023-03-08T02:13:26.465Z,11.82
2023-03-08T02:15:53.759Z,11.77
2023-03-08T02:18:27.559Z,12.27
2023-03-08T02:20:54.525Z,12.68
2023-03-08T02:23:30.540Z,12.30
2023-03-08T02:26:09.502Z,12.30
2023-03-08T02:28:36.429Z,12.18
2023-03-08T02:31:09.571Z,13.27
2023-03-08T02:33:43.500Z,15.27
2023-03-08T02:36:10.657Z,15.10
2023-03-08T02:38:37.723Z,13.43
2023-03-08T02:41:11.503Z,14.40
2023-03-08T02:43:38.380Z,12.57
2023-03-08T02:46:20.525Z,12.85
2023-03-08T02:48:47.568Z,12.95
2023-03-08T02:51:20.560Z,13.05
2023-03-08T02:53:47.541Z,12.60
2023-03-08T02:56:14.544Z,12.30
2023-03-08T02:58:47.486Z,12.80
2023-03-08T03:01:21.808Z,11.68
2023-03-08T03:03:55.577Z,11.27
2023-03-08T03:06:22.612Z,12.50
2023-03-08T03:08:49.565Z,11.50
2023-03-08T03:11:25.516Z,13.00
2023-03-08T03:14:06.507Z,13.55
2023-03-08T03:16:33.476Z,11.02
2023-03-08T03:19:06.550Z,11.38
2023-03-08T03:21:39.504Z,10.60
2023-03-08T03:24:13.542Z,11.88
2023-03-08T03:26:40.525Z,10.43
2023-03-08T03:29:07.925Z,13.13
2023-03-08T03:31:41.569Z,11.85
2023-03-08T03:34:08.492Z,10.55
2023-03-08T03:36:41.548Z,11.13
2023-03-08T03:39:08.513Z,11.57
2023-03-08T03:41:41.555Z,10.95
2023-03-08T03:44:08.537Z,11.00
2023-03-08T03:46:41.549Z,10.45
2023-03-08T03:49:08.629Z,11.70
2023-03-08T03:51:42.569Z,11.55
2023-03-08T03:54:09.516Z,11.95
2023-03-08T03:56:36.558Z,10.80
2023-03-08T03:59:09.573Z,12.52
2023-03-08T04:01:36.505Z,12.20
2023-03-08T04:04:09.529Z,12.85
2023-03-08T04:06:36.519Z,12.32
2023-03-08T04:09:17.558Z,13.30
2023-03-08T04:11:44.470Z,12.52
2023-03-08T04:14:17.634Z,14.05
2023-03-08T04:16:44.593Z,12.73
2023-03-08T04:19:18.604Z,12.60
2023-03-08T04:21:52.583Z,12.77
2023-03-08T04:24:25.530Z,10.88
2023-03-08T04:26:52.478Z,12.13
2023-03-08T04:29:25.600Z,11.23
2023-03-08T04:31:52.547Z,12.20
2023-03-08T04:34:25.605Z,12.07
2023-03-08T04:36:52.560Z,11.65
2023-03-08T04:39:25.553Z,11.60
2023-03-08T04:41:58.668Z,11.45
2023-03-08T04:44:25.590Z,11.10
2023-03-08T04:46:53.134Z,12.82
2023-03-08T04:49:26.555Z,12.02
2023-03-08T04:51:53.569Z,11.82
2023-03-08T04:54:26.580Z,11.25
2023-03-08T04:56:53.490Z,12.45
2023-03-08T04:59:20.420Z,11.82
2023-03-08T05:01:53.645Z,12.60
2023-03-08T05:04:27.561Z,13.10
2023-03-08T05:06:54.478Z,11.52
2023-03-08T05:09:27.582Z,14.05
2023-03-08T05:11:54.535Z,15.50
2023-03-08T05:14:27.550Z,14.50
2023-03-08T05:17:04.546Z,13.35
2023-03-08T05:19:31.553Z,13.13
2023-03-08T05:22:04.640Z,13.48
2023-03-08T05:24:38.588Z,13.90
2023-03-08T05:27:05.908Z,13.95
2023-03-08T05:29:39.620Z,11.65
2023-03-08T05:32:06.998Z,11.82
2023-03-08T05:34:40.606Z,12.40
2023-03-08T05:37:07.511Z,12.82
2023-03-08T05:39:40.578Z,12.32
2023-03-08T05:42:07.616Z,12.50
2023-03-08T05:44:40.546Z,12.82
2023-03-08T05:47:13.600Z,14.43
2023-03-08T05:49:40.526Z,13.30
2023-03-08T05:52:13.577Z,13.23
2023-03-08T05:54:46.596Z,11.30
2023-03-08T05:57:13.540Z,11.68
2023-03-08T05:59:46.638Z,11.95
2023-03-08T06:02:13.552Z,10.82
2023-03-08T06:04:47.639Z,11.55
2023-03-08T06:07:14.618Z,10.75
2023-03-08T06:09:47.610Z,11.15
2023-03-08T06:12:20.576Z,11.75
2023-03-08T06:14:47.479Z,11.98
2023-03-08T06:17:20.556Z,10.82
2023-03-08T06:19:47.536Z,11.05
2023-03-08T06:22:22.621Z,11.23
2023-03-08T06:24:49.533Z,11.50
2023-03-08T06:27:23.624Z,13.02
2023-03-08T06:29:50.610Z,12.57
2023-03-08T06:32:29.705Z,12.13
2023-03-08T06:34:56.855Z,11.45
2023-03-08T06:37:33.645Z,13.20
2023-03-08T06:40:00.598Z,11.52
2023-03-08T06:42:41.484Z,11.20
2023-03-08T06:45:16.605Z,11.63
2023-03-08T06:47:43.575Z,12.30
2023-03-08T06:50:17.622Z,12.50
2023-03-08T06:52:44.647Z,12.63
2023-03-08T06:55:18.717Z,12.15
2023-03-08T06:57:45.615Z,11.73
2023-03-08T07:00:19.603Z,11.63
2023-03-08T07:02:52.621Z,11.82
2023-03-08T07:05:19.593Z,11.73
2023-03-08T07:07:46.572Z,12.95
2023-03-08T07:10:20.695Z,12.23
2023-03-08T07:12:54.655Z,13.15
2023-03-08T07:15:29.672Z,14.93
2023-03-08T07:17:57.616Z,14.95
2023-03-08T07:20:32.622Z,13.40
2023-03-08T07:22:59.683Z,13.18
2023-03-08T07:25:33.609Z,12.65
2023-03-08T07:28:00.580Z,13.73
2023-03-08T07:30:27.593Z,12.15
2023-03-08T07:33:01.644Z,14.38
2023-03-08T07:35:28.704Z,13.73
2023-03-08T07:38:02.626Z,14.02
2023-03-08T07:40:29.588Z,14.10
2023-03-08T07:43:02.680Z,14.23
2023-03-08T07:45:29.721Z,15.05
2023-03-08T07:47:56.683Z,14.07
2023-03-08T07:50:29.714Z,15.02
2023-03-08T07:52:56.700Z,15.65
2023-03-08T07:55:29.660Z,14.68
2023-03-08T07:57:56.675Z,13.20
2023-03-08T08:00:30.635Z,13.57
2023-03-08T08:02:57.609Z,13.35
2023-03-08T08:05:30.692Z,11.55
2023-03-08T08:07:57.664Z,12.90
2023-03-08T08:10:24.577Z,12.48
2023-03-08T08:12:57.692Z,12.25
2023-03-08T08:15:24.733Z,12.10
2023-03-08T08:17:59.611Z,12.25
2023-03-08T08:20:26.996Z,13.63
2023-03-08T08:23:00.685Z,14.07
2023-03-08T08:25:33.630Z,12.95
2023-03-08T08:28:06.758Z,13.60
2023-03-08T08:30:40.688Z,14.25
2023-03-08T08:33:07.585Z,15.35
2023-03-08T08:35:43.355Z,15.63
2023-03-08T08:38:10.546Z,15.93
2023-03-08T08:40:37.570Z,16.30
2023-03-08T08:43:17.654Z,15.65
2023-03-08T08:45:49.723Z,14.23
2023-03-08T08:48:22.670Z,15.43
2023-03-08T08:50:49.609Z,15.02
2023-03-08T08:53:22.765Z,13.75
2023-03-08T08:55:49.684Z,14.77
2023-03-08T08:58:22.668Z,15.65
2023-03-08T09:00:49.699Z,15.02
2023-03-08T09:03:22.721Z,14.95
2023-03-08T09:05:49.578Z,14.15
2023-03-08T09:08:22.673Z,14.35
2023-03-08T09:10:49.520Z,14.60
2023-03-08T09:13:22.711Z,16.30
2023-03-08T09:15:49.659Z,15.65
2023-03-08T09:18:22.684Z,16.50
2023-03-08T09:20:49.656Z,16.73
2023-03-08T09:23:22.711Z,15.50
2023-03-08T09:25:57.522Z,16.77
2023-03-08T09:28:30.692Z,18.75
2023-03-08T09:30:57.798Z,16.75
2023-03-08T09:33:31.724Z,17.25
2023-03-08T09:35:59.083Z,17.67
2023-03-08T09:38:32.712Z,17.92
2023-03-08T09:41:26.681Z,18.98
2023-03-08T09:44:05.520Z,15.50
2023-03-08T09:46:46.686Z,16.60
2023-03-08T09:49:26.118Z,15.10
2023-03-08T09:52:11.674Z,16.88
2023-03-08T09:54:39.131Z,18.45
2023-03-08T09:57:17.756Z,20.33
2023-03-08T09:59:54.728Z,21.42
2023-03-08T10:02:31.705Z,20.73
2023-03-08T10:05:22.676Z,20.15
2023-03-08T10:08:04.733Z,20.65
2023-03-08T10:11:02.706Z,21.88
2023-03-08T10:13:36.469Z,19.10
2023-03-08T10:16:23.735Z,18.20
2023-03-08T10:19:13.101Z,15.43
2023-03-08T10:21:47.741Z,13.40
2023-03-08T10:24:30.973Z,13.20
2023-03-08T10:27:28.704Z,11.20
2023-03-08T10:29:57.868Z,12.88
2023-03-08T10:32:31.772Z,12.70
2023-03-08T10:35:03.046Z,12.40
2023-03-08T10:37:39.754Z,12.18
2023-03-08T10:40:10.213Z,10.30
2023-03-08T10:42:43.723Z,10.40
2023-03-08T10:45:26.708Z,10.88
2023-03-08T10:47:58.050Z,9.50
2023-03-08T10:50:40.714Z,8.18
2023-03-08T10:53:17.205Z,9.52
2023-03-08T10:55:58.757Z,8.40
2023-03-08T10:58:40.769Z,9.38
2023-03-08T11:01:38.441Z,9.63
2023-03-08T11:04:22.760Z,10.25
2023-03-08T11:06:49.849Z,10.15
2023-03-08T11:09:34.699Z,9.80
2023-03-08T11:12:01.608Z,9.55
2023-03-08T11:14:35.766Z,9.48
2023-03-08T11:17:23.566Z,8.57
2023-03-08T11:20:14.743Z,8.32
2023-03-08T11:22:53.750Z,8.32
2023-03-08T11:25:58.777Z,8.68
2023-03-08T11:28:45.033Z,7.65
2023-03-08T11:32:06.765Z,8.13
2023-03-08T11:35:06.925Z,9.10
2023-03-08T11:37:56.798Z,9.00
2023-03-08T11:40:47.720Z,10.10
2023-03-08T11:43:42.768Z,10.38
2023-03-08T11:46:28.465Z,10.77
2023-03-08T11:49:32.799Z,10.32
2023-03-08T11:52:24.809Z,9.35
2023-03-08T11:55:54.586Z,10.13
2023-03-08T11:58:57.773Z,9.95
2023-03-08T12:01:51.272Z,8.63
2023-03-08T12:04:31.844Z,8.60
2023-03-08T12:07:01.168Z,8.68
2023-03-08T12:09:39.842Z,7.97
2023-03-08T12:12:30.650Z,7.50
2023-03-08T12:15:12.850Z,7.72
2023-03-08T12:17:44.395Z,7.72
2023-03-08T12:20:22.798Z,9.02
2023-03-08T12:23:34.868Z,7.78
2023-03-08T12:26:25.934Z,7.97
2023-03-08T12:29:03.852Z,8.55
2023-03-08T12:31:42.852Z,8.35
2023-03-08T12:34:38.216Z,8.20
2023-03-08T12:37:11.814Z,8.00
2023-03-08T12:39:38.712Z,8.30
2023-03-08T12:42:18.780Z,8.50
2023-03-08T12:44:45.691Z,9.00
2023-03-08T12:47:18.796Z,8.88
2023-03-08T12:49:50.057Z,8.95
2023-03-08T12:52:26.848Z,8.65
2023-03-08T12:55:06.778Z,8.02
2023-03-08T12:57:44.777Z,7.72
2023-03-08T13:00:21.142Z,7.55
2023-03-08T13:03:30.835Z,7.18
2023-03-08T13:06:03.819Z,5.82
2023-03-08T13:08:40.719Z,6.53
2023-03-08T13:11:18.826Z,7.22
2023-03-08T13:14:05.019Z,8.25
2023-03-08T13:16:39.125Z,8.50
2023-03-08T13:19:27.843Z,8.68
2023-03-08T13:22:09.095Z,8.32
2023-03-08T13:24:57.008Z,8.50
2023-03-08T13:27:36.907Z,9.00
2023-03-08T13:30:31.618Z,8.10
2023-03-08T13:33:05.845Z,8.75
2023-03-08T13:35:38.899Z,8.68
2023-03-08T13:38:12.846Z,8.18
2023-03-08T13:40:45.851Z,7.95
2023-03-08T13:43:13.810Z,8.50
2023-03-08T13:45:46.877Z,8.90
2023-03-08T13:48:13.774Z,9.15
2023-03-08T13:50:52.832Z,8.55
2023-03-08T13:53:23.521Z,8.45
2023-03-08T13:55:59.852Z,8.98
2023-03-08T13:58:38.839Z,9.43
2023-03-08T14:01:17.936Z,8.30
2023-03-08T14:03:45.942Z,9.57
2023-03-08T14:06:36.926Z,9.45
2023-03-08T14:09:04.041Z,7.72
2023-03-08T14:11:45.853Z,8.93
2023-03-08T14:14:30.063Z,8.85
2023-03-08T14:17:07.440Z,8.40
2023-03-08T14:19:45.922Z,9.73
2023-03-08T14:22:14.522Z,8.27
2023-03-08T14:24:48.898Z,8.57
2023-03-08T14:27:21.922Z,9.48
2023-03-08T14:29:48.935Z,8.85
2023-03-08T14:32:15.926Z,7.97
2023-03-08T14:34:49.900Z,10.52
2023-03-08T14:37:30.192Z,8.07
2023-03-08T14:40:19.909Z,9.05
2023-03-08T14:42:55.926Z,7.57
2023-03-08T14:45:42.639Z,8.40
2023-03-08T14:48:34.980Z,8.38
2023-03-08T14:51:07.295Z,9.45
2023-03-08T14:53:46.880Z,8.23
2023-03-08T14:56:15.693Z,9.15
2023-03-08T14:58:56.946Z,9.00
2023-03-08T15:01:32.706Z,8.63
2023-03-08T15:04:06.882Z,8.88
2023-03-08T15:06:35.362Z,8.43
2023-03-08T15:09:03.185Z,8.32
2023-03-08T15:11:37.903Z,8.10
2023-03-08T15:14:04.831Z,10.30
2023-03-08T15:16:37.959Z,9.30
2023-03-08T15:19:05.169Z,9.43
2023-03-08T15:21:32.150Z,8.95
2023-03-08T15:24:05.879Z,9.20
2023-03-08T15:26:38.901Z,10.02
2023-03-08T15:29:05.844Z,9.80
2023-03-08T15:31:38.941Z,10.75
2023-03-08T15:34:05.820Z,10.20
2023-03-08T15:36:38.881Z,9.20
2023-03-08T15:39:05.816Z,10.05
2023-03-08T15:41:32.692Z,9.85
2023-03-08T15:44:05.890Z,9.75
2023-03-08T15:46:38.953Z,10.52
2023-03-08T15:49:12.881Z,11.82
2023-03-08T15:51:52.911Z,11.27
2023-03-08T15:54:25.923Z,10.02
2023-03-08T15:56:58.900Z,9.13
2023-03-08T15:59:25.810Z,8.50
2023-03-08T16:01:58.998Z,9.68
2023-03-08T16:04:32.927Z,9.00
2023-03-08T16:06:59.822Z,10.73
2023-03-08T16:09:32.961Z,11.07
2023-03-08T16:11:59.853Z,9.43
2023-03-08T16:14:26.754Z,10.07
2023-03-08T16:17:00.048Z,10.13
2023-03-08T16:19:30.465Z,14.20
2023-03-08T16:22:03.945Z,12.20
2023-03-08T16:24:36.972Z,10.43
2023-03-08T16:27:04.106Z,10.38
2023-03-08T16:29:32.273Z,9.27
2023-03-08T16:32:06.154Z,9.50
2023-03-08T16:34:33.102Z,8.60
2023-03-08T16:36:59.991Z,9.32
2023-03-08T16:39:32.994Z,11.88
2023-03-08T16:41:59.903Z,11.10
2023-03-08T16:44:35.023Z,10.40
2023-03-08T16:47:07.949Z,12.00
2023-03-08T16:49:35.694Z,12.20
2023-03-08T16:52:09.008Z,11.68
2023-03-08T16:54:36.049Z,11.18
2023-03-08T16:57:18.548Z,11.15
2023-03-08T16:59:45.813Z,11.27
2023-03-08T17:02:25.040Z,10.20
2023-03-08T17:04:52.028Z,10.27
2023-03-08T17:07:24.999Z,13.25
2023-03-08T17:09:58.015Z,13.40
2023-03-08T17:12:25.154Z,12.65
2023-03-08T17:14:59.048Z,15.07
2023-03-08T17:17:33.029Z,22.23
2023-03-08T17:20:00.013Z,28.52
2023-03-08T17:22:33.000Z,25.70
2023-03-08T17:25:01.375Z,24.80
2023-03-08T17:27:28.405Z,27.40
2023-03-08T17:30:02.027Z,31.70
2023-03-08T17:32:35.005Z,37.85
2023-03-08T17:35:09.032Z,38.67
2023-03-08T17:37:35.957Z,37.20
2023-03-08T17:40:02.839Z,36.67
2023-03-08T17:42:36.010Z,36.60
2023-03-08T17:45:04.452Z,37.10
2023-03-08T17:47:31.371Z,35.08
2023-03-08T17:50:04.970Z,38.55
2023-03-08T17:52:31.966Z,29.58
2023-03-08T17:55:05.054Z,24.55
2023-03-08T17:57:31.957Z,24.88
2023-03-08T18:00:04.982Z,22.40
2023-03-08T18:02:39.129Z,23.70
2023-03-08T18:05:13.038Z,23.67
2023-03-08T18:07:41.772Z,22.48
2023-03-08T18:10:17.074Z,26.58
2023-03-08T18:12:44.018Z,25.23
2023-03-08T18:15:11.497Z,21.65
2023-03-08T18:17:45.028Z,20.38
2023-03-08T18:20:12.004Z,21.73
2023-03-08T18:22:44.998Z,22.35
2023-03-08T18:25:11.908Z,24.42
2023-03-08T18:27:38.802Z,28.23
2023-03-08T18:30:13.034Z,28.83
2023-03-08T18:32:40.268Z,26.33
2023-03-08T18:35:21.072Z,54.10
2023-03-08T18:37:54.046Z,45.97
2023-03-08T18:40:20.946Z,26.42
2023-03-08T18:42:54.062Z,22.42
2023-03-08T18:45:20.982Z,19.55
2023-03-08T18:47:58.188Z,18.75
2023-03-08T18:50:31.675Z,17.33
2023-03-08T18:53:05.039Z,13.90
2023-03-08T18:55:31.940Z,11.13
2023-03-08T18:58:05.003Z,9.75
2023-03-08T19:00:38.076Z,8.30
2023-03-08T19:03:11.040Z,9.20
2023-03-08T19:05:44.024Z,9.40
2023-03-08T19:08:17.069Z,10.85
2023-03-08T19:10:43.950Z,9.93
2023-03-08T19:13:17.093Z,10.10
2023-03-08T19:15:44.015Z,9.15
2023-03-08T19:18:10.932Z,10.23
2023-03-08T19:20:46.042Z,14.38
2023-03-08T19:23:12.926Z,15.77
2023-03-08T19:25:46.038Z,14.48
2023-03-08T19:28:12.914Z,16.25
2023-03-08T19:30:39.810Z,20.45
2023-03-08T19:33:24.663Z,24.80
2023-03-08T19:35:56.911Z,31.05
2023-03-08T19:38:30.055Z,34.50
2023-03-08T19:40:56.915Z,25.05
2023-03-08T19:43:30.021Z,17.65
2023-03-08T19:46:03.072Z,14.02
2023-03-08T19:48:36.470Z,12.90
2023-03-08T19:51:10.041Z,12.48
2023-03-08T19:53:36.949Z,9.52
2023-03-08T19:56:10.026Z,9.80
2023-03-08T19:58:36.935Z,10.32
2023-03-08T20:01:05.499Z,9.25
2023-03-08T20:03:39.072Z,9.60
2023-03-08T20:06:13.108Z,9.38
2023-03-08T20:08:39.996Z,9.25
2023-03-08T20:11:14.091Z,10.27
2023-03-08T20:13:41.042Z,10.07
2023-03-08T20:16:15.193Z,10.48
2023-03-08T20:18:42.327Z,11.25
2023-03-08T20:21:16.072Z,11.55
2023-03-08T20:23:43.010Z,12.50
2023-03-08T20:26:09.943Z,14.25
2023-03-08T20:28:43.108Z,17.75
2023-03-08T20:31:12.121Z,14.57
2023-03-08T20:33:46.138Z,12.40
2023-03-08T20:36:13.077Z,13.15
2023-03-08T20:38:46.106Z,14.77
2023-03-08T20:41:25.116Z,16.13
2023-03-08T20:43:52.319Z,13.80
2023-03-08T20:46:27.185Z,11.82
2023-03-08T20:49:01.091Z,12.73
2023-03-08T20:51:28.139Z,12.55
2023-03-08T20:54:02.124Z,12.80
2023-03-08T20:56:29.076Z,12.18
2023-03-08T20:59:04.142Z,12.18
2023-03-08T21:01:32.600Z,13.73
2023-03-08T21:04:06.167Z,13.93
2023-03-08T21:06:33.146Z,14.27
2023-03-08T21:09:00.398Z,14.93
2023-03-08T21:11:34.129Z,15.23
2023-03-08T21:14:01.092Z,14.95
2023-03-08T21:16:28.648Z,16.83
2023-03-08T21:19:05.126Z,16.88
2023-03-08T21:21:35.175Z,15.55
2023-03-08T21:24:12.154Z,15.40
2023-03-08T21:26:39.108Z,16.20
2023-03-08T21:29:15.112Z,16.52
2023-03-08T21:31:44.885Z,18.52
2023-03-08T21:34:19.123Z,16.52
2023-03-08T21:36:46.016Z,17.65
2023-03-08T21:39:20.176Z,16.83
2023-03-08T21:41:47.708Z,15.10
2023-03-08T21:44:25.128Z,15.57
2023-03-08T21:46:59.161Z,15.95
2023-03-08T21:49:28.493Z,15.00
2023-03-08T21:52:03.191Z,15.48
2023-03-08T21:54:30.867Z,14.85
2023-03-08T21:57:04.178Z,14.77
2023-03-08T21:59:31.186Z,13.65
2023-03-08T22:02:05.215Z,13.55
2023-03-08T22:04:32.143Z,14.52
2023-03-08T22:07:05.164Z,14.52
2023-03-08T22:09:32.112Z,13.48
2023-03-08T22:11:58.998Z,14.15
2023-03-08T22:14:33.405Z,14.52
2023-03-08T22:17:07.164Z,15.15
2023-03-08T22:19:40.109Z,14.77
2023-03-08T22:22:07.022Z,13.88
2023-03-08T22:24:33.967Z,14.48
2023-03-08T22:27:07.142Z,15.02
2023-03-08T22:29:34.028Z,15.30
2023-03-08T22:32:07.200Z,15.00
2023-03-08T22:34:34.248Z,14.90
2023-03-08T22:37:08.146Z,15.93
2023-03-08T22:39:41.104Z,16.90
2023-03-08T22:42:08.242Z,16.25
2023-03-08T22:44:42.164Z,17.90
2023-03-08T22:47:09.029Z,16.38
2023-03-08T22:49:42.152Z,15.00
2023-03-08T22:52:09.058Z,16.00
2023-03-08T22:54:43.148Z,15.80
2023-03-08T22:57:16.188Z,16.35
2023-03-08T22:59:43.102Z,15.60
2023-03-08T23:02:16.152Z,15.32
2023-03-08T23:04:49.196Z,15.57
2023-03-08T23:07:23.152Z,16.13
2023-03-08T23:09:56.280Z,16.23
2023-03-08T23:12:23.166Z,17.67
2023-03-08T23:14:56.162Z,17.80
2023-03-08T23:17:29.183Z,18.75
2023-03-08T23:19:56.060Z,19.27
2023-03-08T23:22:29.155Z,21.85
2023-03-08T23:24:56.036Z,21.30
2023-03-08T23:27:29.214Z,19.15
2023-03-08T23:29:56.109Z,17.42
2023-03-08T23:32:29.223Z,16.95
2023-03-08T23:34:56.104Z,17.15
2023-03-08T23:37:29.166Z,16.75
2023-03-08T23:39:56.077Z,15.85
2023-03-08T23:42:29.230Z,17.48
2023-03-08T23:44:56.079Z,16.00
2023-03-08T23:47:29.188Z,15.75
2023-03-08T23:50:02.862Z,14.77
2023-03-08T23:52:36.193Z,15.25
2023-03-08T23:55:03.754Z,15.98
2023-03-08T23:57:30.703Z,14.90
